AirNav   ProFlight Series 2 Aviation Headset
 
 1591 users online  

8FL5 Beach Helicopter Heliport
Destin, Florida, USA


FAA INFORMATION EFFECTIVE 08 OCTOBER 2020

Location

FAA Identifier: 8FL5
Lat/Long: 30-23-17.7000N 086-25-59.9200W
30-23.295000N 086-25.998667W
30.3882500,-86.4333111
(estimated)
Elevation: 16 ft. / 5 m (estimated)
From city: 3 miles E of DESTIN, FL
Time zone: UTC +0 (year round; does not observe DST)
Zip code: 32541

Heliport Operations

Heliport use: Private use. Permission required prior to landing
Activation date: 08/2020
Control tower: no
ARTCC: JACKSONVILLE CENTER
FSS: GAINESVILLE FLIGHT SERVICE STATION
Attendance: 
Segmented circle: no

Heliport Communications

WX ASOS at DTS (2.1 nm W): PHONE 850-654-7128

Nearby radio navigation aids

VOR radial/distance  VOR name  Freq  Var
CEWr151/29.2CRESTVIEW VORTAC115.9003E

 
NDB name  Hdg/Dist  Freq  Var  ID
LYNNE280/33.927804WPFN .--. ..-. -.
PICKENS096/38.732602WPKZ .--. -.- --..

Heliport Services

Runway Information

Helipad H1

Dimensions: 50 x 50 ft. / 15 x 15 m
Surface: asphalt/concrete, in fair condition
Latitude: 30-23.295000N
Longitude: 086-25.998667W
Elevation: 16.0 ft.
Traffic pattern: leftleft

Heliport Ownership and Management from official FAA records

Ownership: Privately-owned
Owner: KIMBERLY LANGFORD/MICHAEL SCHAEFFER
34859 EMERALD COAST PKWY
DESTIN, FL 32541
Phone 850-867-3038
Manager: KIMBERLY LANGFORD/MICHAEL SCHAEFFER
34859 EMERALD COAST PKWY
DESTIN, FL 32541
Phone 850-867-3038

Heliport Operational Statistics

Aircraft based on the field: 1
Helicopters: 1
    

Additional Remarks

TLOF 50X50 FT; FATO 157X177 FT; INGRESS/EGRESS 012/012.

Instrument Procedures

There are no published instrument procedures at 8FL5.

Some nearby airports with instrument procedures:

KDTS - Destin Executive Airport (2 nm W)
KVPS - Eglin Air Force Base/Destin-Fort Walton Beach Airport (7 nm NW)
KHRT - Hurlburt Field Airport (13 nm W)
KEGI - Duke Field (Eglin AF Aux Nr 3) Airport (16 nm N)
KCEW - Bob Sikes Airport (24 nm N)
 
Loc | Ops | Rwys | IFR | FBO | Links
Com | Nav | Svcs | Stats | Notes
Aerial photo
No photo
 
Airport distance calculator
Flying to Beach Helicopter Heliport? Find the distance to fly.

From to 8FL5

Sunrise and sunset
Times for 20-Oct-2020
 Zulu (UTC)
Morning civil twilight11:29
Sunrise11:53
Sunset23:08
Evening civil twilight23:32

Current date and time
Zulu (UTC)  20-Oct-2020 17:15:53
 
METAR
KDTS 
2nm W 
201653Z 08007KT 10SM CLR 28/20 A3008 RMK AO2 SLP187 T02780200
KVPS 
6nm NW 
201656Z AUTO 07008KT 8SM CLR 29/20 A3009 RMK AO2 SLP196 T02870199 $
KHRT 
12nm W 
201656Z 09011KT 10SM FEW040 29/20 A3007 RMK AO2A SLP184 T02860200 $
KEGI 
15nm N 
201656Z AUTO 08009KT 10SM CLR 29/18 A3009 RMK AO2 SLP189 T02910179 $
TAF
KVPS 
6nm NW 
200900Z 2009/2115 04006KT 9999 SKC QNH3004INS BECMG 2012/2013 05009KT 8000 BR SCT015 WS010/10023KT QNH3005INS BECMG 2014/2015 07012KT 9999 NSW FEW025 QNH3008INS BECMG 2018/2019 06009KT 9999 FEW030 SCT050 QNH3004INS BECMG 2105/2106 07009KT 9999 FEW020 QNH3005INS BECMG 2112/2113 05008KT 8000 BR BKN008 BKN015 QNH3002INS TX28/2021Z TN19/2011Z
KHRT 
12nm W 
201000Z 2010/2116 07005KT 9999 SKC QNH3004INS BECMG 2014/2015 12006KT 9999 SCT040 QNH3003INS BECMG 2018/2019 18009KT 9999 BKN040 QNH3000INS BECMG 2022/2023 06004KT 9999 SKC QNH3000INS BECMG 2102/2103 08006KT 9999 FEW015 QNH3002INS TX29/2020Z TN19/2012Z
KEGI 
15nm N 
201300Z 2013/2115 04006KT 6000 BR SCT030 QNH3006INS BECMG 2013/2014 08009KT 9999 NSW SCT040 QNH3002INS BECMG 2107/2108 07006KT 6000 BR BKN018 QNH3005INS TX29/2020Z TN16/2013Z
NOTAMs
Click for the latest NOTAMs
NOTAMs are issued by the DoD/FAA and will open in a separate window not controlled by AirNav.

 

 
 

Would you like to see your business listed on this page?

 If your business provides an interesting product or service to pilots, flight crews, aircraft, or users of the Beach Helicopter Heliport, you should consider listing it here.  To start the listing process, click on the button below
 
Add a business
 

Other Pages about Beach Helicopter Heliport

Update a link
 
Copyright © AirNav, LLC. All rights reserved. Privacy Policy  Contact